createdAt,value
2018-11-26T00:00:07.960Z,14.251404
2018-11-26T00:00:27.792Z,14.241333
2018-11-26T00:00:47.928Z,14.271545
2018-11-26T00:01:07.624Z,14.271545
2018-11-26T00:01:27.312Z,14.211121
2018-11-26T00:01:47.011Z,14.241333
2018-11-26T00:02:06.661Z,14.241333
2018-11-26T00:02:26.272Z,14.241333
2018-11-26T00:02:46.902Z,14.241333
2018-11-26T00:03:06.542Z,14.221191
2018-11-26T00:03:26.164Z,14.251404
2018-11-26T00:03:45.802Z,14.271545
2018-11-26T00:04:05.419Z,14.241333
2018-11-26T00:04:25.165Z,14.251404
2018-11-26T00:04:44.975Z,14.241333
2018-11-26T00:05:04.595Z,14.251404
2018-11-26T00:05:25.215Z,14.251404
2018-11-26T00:05:44.827Z,14.251404
2018-11-26T00:06:04.491Z,14.251404
2018-11-26T00:06:25.094Z,14.281616
2018-11-26T00:06:45.701Z,14.241333
2018-11-26T00:07:05.452Z,14.271545
2018-11-26T00:07:25.109Z,14.251404
2018-11-26T00:07:44.774Z,14.271545
2018-11-26T00:08:04.634Z,14.281616
2018-11-26T00:08:24.247Z,14.251404
2018-11-26T00:08:43.856Z,14.291687
2018-11-26T00:09:03.535Z,14.281616
2018-11-26T00:09:23.844Z,14.291687
2018-11-26T00:09:43.504Z,14.281616
2018-11-26T00:10:03.150Z,14.251404
2018-11-26T00:10:22.859Z,14.281616
2018-11-26T00:10:42.517Z,14.251404
2018-11-26T00:11:02.233Z,14.271545
2018-11-26T00:11:21.988Z,14.251404
2018-11-26T00:11:41.619Z,14.271545
2018-11-26T00:12:01.241Z,14.271545
2018-11-26T00:12:20.876Z,14.271545
2018-11-26T00:12:40.517Z,14.251404
2018-11-26T00:13:00.159Z,14.251404
2018-11-26T00:13:19.783Z,14.271545
2018-11-26T00:13:39.459Z,14.281616
2018-11-26T00:13:59.106Z,14.321899
2018-11-26T00:14:19.706Z,14.281616
2018-11-26T00:14:39.353Z,14.291687
2018-11-26T00:14:58.961Z,14.291687
2018-11-26T00:15:18.687Z,14.321899
2018-11-26T00:15:38.302Z,14.321899
2018-11-26T00:15:57.982Z,14.321899
2018-11-26T00:16:17.618Z,14.321899
2018-11-26T00:16:37.272Z,14.291687
2018-11-26T00:16:56.924Z,14.271545
2018-11-26T00:17:16.584Z,14.291687
2018-11-26T00:17:36.213Z,14.291687
2018-11-26T00:17:56.025Z,14.321899
2018-11-26T00:18:16.079Z,14.33197
2018-11-26T00:18:35.784Z,14.321899
2018-11-26T00:18:55.406Z,14.352112
2018-11-26T00:19:15.116Z,14.33197
2018-11-26T00:19:34.962Z,14.33197
2018-11-26T00:19:54.625Z,14.33197
2018-11-26T00:20:14.443Z,14.321899
2018-11-26T00:20:34.133Z,14.352112
2018-11-26T00:20:53.764Z,14.362183
2018-11-26T00:21:13.460Z,14.372253
2018-11-26T00:21:33.158Z,14.362183
2018-11-26T00:21:52.805Z,14.392395
2018-11-26T00:22:12.490Z,14.372253
2018-11-26T00:22:32.104Z,14.372253
2018-11-26T00:22:51.761Z,14.372253
2018-11-26T00:23:11.383Z,14.372253
2018-11-26T00:23:31.028Z,14.392395
2018-11-26T00:23:50.659Z,14.392395
2018-11-26T00:24:10.351Z,14.392395
2018-11-26T00:24:30.016Z,14.372253
2018-11-26T00:24:50.631Z,14.372253
2018-11-26T00:25:10.236Z,14.392395
2018-11-26T00:25:29.853Z,14.392395
2018-11-26T00:25:49.492Z,14.372253
2018-11-26T00:26:10.210Z,14.372253
2018-11-26T00:26:29.860Z,14.372253
2018-11-26T00:26:49.451Z,14.392395
2018-11-26T00:27:09.090Z,14.362183
2018-11-26T00:27:28.701Z,14.392395
2018-11-26T00:27:48.319Z,14.372253
2018-11-26T00:28:08.059Z,14.372253
2018-11-26T00:28:27.629Z,14.372253
2018-11-26T00:28:48.130Z,14.372253
2018-11-26T00:29:07.743Z,14.402466
2018-11-26T00:29:27.369Z,14.372253
2018-11-26T00:29:47.059Z,14.362183
2018-11-26T00:30:06.778Z,14.372253
2018-11-26T00:30:26.405Z,14.362183
2018-11-26T00:30:46.037Z,14.362183
2018-11-26T00:31:06.555Z,14.33197
2018-11-26T00:31:26.271Z,14.33197
2018-11-26T00:31:45.921Z,14.352112
2018-11-26T00:32:06.529Z,14.372253
2018-11-26T00:32:26.192Z,14.33197
2018-11-26T00:32:45.863Z,14.362183
2018-11-26T00:33:05.488Z,14.33197
2018-11-26T00:33:25.116Z,14.372253
2018-11-26T00:33:44.740Z,14.352112
2018-11-26T00:34:04.348Z,14.352112
2018-11-26T00:34:24.012Z,14.321899
2018-11-26T00:34:43.630Z,14.352112
2018-11-26T00:35:03.243Z,14.33197
2018-11-26T00:35:23.855Z,14.362183
2018-11-26T00:35:43.472Z,14.33197
2018-11-26T00:36:03.077Z,14.321899
2018-11-26T00:36:22.744Z,14.321899
2018-11-26T00:36:42.358Z,14.352112
2018-11-26T00:37:01.974Z,14.321899
2018-11-26T00:37:21.585Z,14.321899
2018-11-26T00:37:42.185Z,14.33197
2018-11-26T00:38:01.796Z,14.33197
2018-11-26T00:38:21.404Z,14.321899
2018-11-26T00:38:41.014Z,14.321899
2018-11-26T00:39:01.355Z,14.321899
2018-11-26T00:39:20.965Z,14.362183
2018-11-26T00:39:40.720Z,14.33197
2018-11-26T00:40:01.497Z,14.352112
2018-11-26T00:40:21.137Z,14.33197
2018-11-26T00:40:40.851Z,14.33197
2018-11-26T00:41:00.462Z,14.362183
2018-11-26T00:41:20.134Z,14.362183
2018-11-26T00:41:39.754Z,14.362183
2018-11-26T00:41:59.375Z,14.362183
2018-11-26T00:42:19.017Z,14.352112
2018-11-26T00:42:38.703Z,14.352112
2018-11-26T00:42:58.382Z,14.33197
2018-11-26T00:43:18.113Z,14.362183
2018-11-26T00:43:37.641Z,14.392395
2018-11-26T00:43:57.258Z,14.33197
2018-11-26T00:44:16.939Z,14.362183
2018-11-26T00:44:37.553Z,14.372253
2018-11-26T00:44:57.155Z,14.372253
2018-11-26T00:45:16.840Z,14.352112
2018-11-26T00:45:36.484Z,14.362183
2018-11-26T00:45:56.187Z,14.352112
2018-11-26T00:46:16.120Z,14.372253
2018-11-26T00:46:35.819Z,14.372253
2018-11-26T00:46:55.466Z,14.362183
2018-11-26T00:47:15.203Z,14.372253
2018-11-26T00:47:34.818Z,14.362183
2018-11-26T00:47:54.559Z,14.362183
2018-11-26T00:48:14.198Z,14.362183
2018-11-26T00:48:33.812Z,14.372253
2018-11-26T00:48:53.425Z,14.392395
2018-11-26T00:49:13.038Z,14.372253
2018-11-26T00:49:32.691Z,14.352112
2018-11-26T00:49:52.359Z,14.372253
2018-11-26T00:50:11.979Z,14.372253
2018-11-26T00:50:31.590Z,14.372253
2018-11-26T00:50:52.213Z,14.362183
2018-11-26T00:51:11.838Z,14.372253
2018-11-26T00:51:31.507Z,14.392395
2018-11-26T00:51:51.245Z,14.392395
2018-11-26T00:52:10.863Z,14.402466
2018-11-26T00:52:30.478Z,14.422607
2018-11-26T00:52:50.210Z,14.402466
2018-11-26T00:53:09.828Z,14.422607
2018-11-26T00:53:29.627Z,14.422607
2018-11-26T00:53:49.287Z,14.432678
2018-11-26T00:54:08.921Z,14.422607
2018-11-26T00:54:28.637Z,14.432678
2018-11-26T00:54:49.271Z,14.402466
2018-11-26T00:55:08.890Z,14.45282
2018-11-26T00:55:28.566Z,14.422607
2018-11-26T00:55:48.240Z,14.432678
2018-11-26T00:56:07.889Z,14.422607
2018-11-26T00:56:27.538Z,14.432678
2018-11-26T00:56:47.215Z,14.422607
2018-11-26T00:57:06.830Z,14.422607
2018-11-26T00:57:26.458Z,14.402466
2018-11-26T00:57:46.094Z,14.392395
2018-11-26T00:58:05.703Z,14.432678
2018-11-26T00:58:25.313Z,14.392395
2018-11-26T00:58:44.942Z,14.392395
2018-11-26T00:59:04.564Z,14.422607
2018-11-26T00:59:24.177Z,14.392395
2018-11-26T00:59:43.786Z,14.402466
2018-11-26T01:00:03.518Z,14.392395
2018-11-26T01:00:23.122Z,14.392395
2018-11-26T01:00:42.870Z,14.392395
2018-11-26T01:01:02.475Z,14.372253
2018-11-26T01:01:22.245Z,14.372253
2018-11-26T01:01:41.911Z,14.372253
2018-11-26T01:02:01.543Z,14.372253
2018-11-26T01:02:21.174Z,14.372253
2018-11-26T01:02:40.839Z,14.372253
2018-11-26T01:03:00.488Z,14.372253
2018-11-26T01:03:20.174Z,14.362183
2018-11-26T01:03:39.902Z,14.362183
2018-11-26T01:03:59.540Z,14.352112
2018-11-26T01:04:19.197Z,14.372253
2018-11-26T01:04:38.802Z,14.372253
2018-11-26T01:04:58.467Z,14.372253
2018-11-26T01:05:18.874Z,14.392395
2018-11-26T01:05:38.666Z,14.392395
2018-11-26T01:05:58.358Z,14.362183
2018-11-26T01:06:18.113Z,14.392395
2018-11-26T01:06:37.793Z,14.372253
2018-11-26T01:06:57.449Z,14.372253
2018-11-26T01:07:17.055Z,14.362183
2018-11-26T01:07:36.715Z,14.372253
2018-11-26T01:07:56.345Z,14.352112
2018-11-26T01:08:16.812Z,14.372253
2018-11-26T01:08:36.417Z,14.362183
2018-11-26T01:08:56.039Z,14.362183
2018-11-26T01:09:15.764Z,14.321899
2018-11-26T01:09:35.367Z,14.352112
2018-11-26T01:09:54.986Z,14.352112
2018-11-26T01:10:14.666Z,14.362183
2018-11-26T01:10:34.291Z,14.321899
2018-11-26T01:10:53.900Z,14.33197
2018-11-26T01:11:13.530Z,14.352112
2018-11-26T01:11:33.160Z,14.372253
2018-11-26T01:11:52.952Z,14.33197
2018-11-26T01:12:12.574Z,14.372253
2018-11-26T01:12:32.315Z,14.352112
2018-11-26T01:12:52.068Z,14.372253
2018-11-26T01:13:11.713Z,14.352112
2018-11-26T01:13:31.374Z,14.352112
2018-11-26T01:13:51.250Z,14.362183
2018-11-26T01:14:11.016Z,14.362183
2018-11-26T01:14:30.740Z,14.352112
2018-11-26T01:14:50.376Z,14.392395
2018-11-26T01:15:09.994Z,14.352112
2018-11-26T01:15:29.605Z,14.362183
2018-11-26T01:15:49.301Z,14.33197
2018-11-26T01:16:08.912Z,14.372253
2018-11-26T01:16:28.546Z,14.352112
2018-11-26T01:16:48.160Z,14.362183
2018-11-26T01:17:07.833Z,14.362183
2018-11-26T01:17:27.446Z,14.362183
2018-11-26T01:17:47.081Z,14.372253
2018-11-26T01:18:06.683Z,14.352112
2018-11-26T01:18:26.295Z,14.33197
2018-11-26T01:18:45.947Z,14.352112
2018-11-26T01:19:05.557Z,14.352112
2018-11-26T01:19:25.166Z,14.352112
2018-11-26T01:19:44.773Z,14.33197
2018-11-26T01:20:04.397Z,14.33197
2018-11-26T01:20:24.006Z,14.362183
2018-11-26T01:20:43.614Z,14.352112
2018-11-26T01:21:03.625Z,14.352112
2018-11-26T01:21:23.242Z,14.362183
2018-11-26T01:21:42.974Z,14.352112
2018-11-26T01:22:02.669Z,14.362183
2018-11-26T01:22:22.274Z,14.321899
2018-11-26T01:22:41.891Z,14.33197
2018-11-26T01:23:01.498Z,14.33197
2018-11-26T01:23:21.129Z,14.33197
2018-11-26T01:23:41.744Z,14.352112
2018-11-26T01:24:01.443Z,14.362183
2018-11-26T01:24:21.055Z,14.33197
2018-11-26T01:24:40.695Z,14.321899
2018-11-26T01:25:00.286Z,14.352112
2018-11-26T01:25:20.899Z,14.33197
2018-11-26T01:25:40.592Z,14.352112
2018-11-26T01:26:00.201Z,14.352112
2018-11-26T01:26:19.813Z,14.352112
2018-11-26T01:26:39.416Z,14.362183
2018-11-26T01:26:59.061Z,14.33197
2018-11-26T01:27:18.921Z,14.362183
2018-11-26T01:27:38.541Z,14.33197
2018-11-26T01:27:58.174Z,14.321899
2018-11-26T01:28:17.776Z,14.321899
2018-11-26T01:28:37.416Z,14.291687
2018-11-26T01:28:57.122Z,14.281616
2018-11-26T01:29:16.727Z,14.281616
2018-11-26T01:29:36.332Z,14.291687
2018-11-26T01:29:56.000Z,14.281616
2018-11-26T01:30:16.597Z,14.281616
2018-11-26T01:30:36.217Z,14.291687
2018-11-26T01:30:55.918Z,14.281616
2018-11-26T01:31:15.528Z,14.33197
2018-11-26T01:31:35.208Z,14.291687
2018-11-26T01:31:54.846Z,14.362183
2018-11-26T01:32:14.552Z,14.352112
2018-11-26T01:32:34.165Z,14.352112
2018-11-26T01:32:53.783Z,14.352112
2018-11-26T01:33:13.487Z,14.33197
2018-11-26T01:33:33.120Z,14.33197
2018-11-26T01:33:52.814Z,14.321899
2018-11-26T01:34:12.479Z,14.291687
2018-11-26T01:34:32.090Z,14.291687
2018-11-26T01:34:51.696Z,14.291687
2018-11-26T01:35:12.364Z,14.291687
2018-11-26T01:35:31.974Z,14.291687
2018-11-26T01:35:51.578Z,14.33197
2018-11-26T01:36:11.222Z,14.291687
2018-11-26T01:36:30.828Z,14.33197
2018-11-26T01:36:50.446Z,14.291687
2018-11-26T01:37:10.123Z,14.291687
2018-11-26T01:37:30.702Z,14.291687
2018-11-26T01:37:50.311Z,14.251404
2018-11-26T01:38:09.920Z,14.271545
2018-11-26T01:38:29.533Z,14.291687
2018-11-26T01:38:49.159Z,14.281616
2018-11-26T01:39:08.764Z,14.281616
2018-11-26T01:39:30.130Z,14.291687
2018-11-26T01:39:49.756Z,14.281616
2018-11-26T01:40:09.452Z,14.281616
2018-11-26T01:40:29.061Z,14.271545
2018-11-26T01:40:49.660Z,14.271545
2018-11-26T01:41:09.285Z,14.291687
2018-11-26T01:41:28.895Z,14.281616
2018-11-26T01:41:48.819Z,14.281616
2018-11-26T01:42:08.410Z,14.291687
2018-11-26T01:42:28.068Z,14.271545
2018-11-26T01:42:47.751Z,14.271545
2018-11-26T01:43:07.427Z,14.281616
2018-11-26T01:43:27.039Z,14.271545
2018-11-26T01:43:46.719Z,14.271545
2018-11-26T01:44:06.340Z,14.271545
2018-11-26T01:44:25.998Z,14.271545
2018-11-26T01:44:45.614Z,14.271545
2018-11-26T01:45:05.226Z,14.271545
2018-11-26T01:45:24.837Z,14.271545
2018-11-26T01:45:44.535Z,14.271545
2018-11-26T01:46:04.144Z,14.271545
2018-11-26T01:46:23.750Z,14.251404
2018-11-26T01:46:43.406Z,14.251404
2018-11-26T01:47:03.200Z,14.271545
2018-11-26T01:47:22.863Z,14.241333
2018-11-26T01:47:42.490Z,14.251404
2018-11-26T01:48:02.101Z,14.241333
2018-11-26T01:48:21.763Z,14.271545
2018-11-26T01:48:41.404Z,14.241333
2018-11-26T01:49:02.025Z,14.251404
2018-11-26T01:49:21.631Z,14.251404
2018-11-26T01:49:41.250Z,14.241333
2018-11-26T01:50:00.938Z,14.251404
2018-11-26T01:50:21.567Z,14.241333
2018-11-26T01:50:41.180Z,14.251404
2018-11-26T01:51:00.945Z,14.241333
2018-11-26T01:51:21.549Z,14.251404
2018-11-26T01:51:41.157Z,14.281616
2018-11-26T01:52:00.864Z,14.251404
2018-11-26T01:52:20.525Z,14.241333
2018-11-26T01:52:40.138Z,14.241333
2018-11-26T01:52:59.749Z,14.241333
2018-11-26T01:53:19.358Z,14.251404
2018-11-26T01:53:38.971Z,14.251404
2018-11-26T01:53:58.658Z,14.281616
2018-11-26T01:54:18.273Z,14.251404
2018-11-26T01:54:37.891Z,14.251404
2018-11-26T01:54:57.645Z,14.241333
2018-11-26T01:55:17.285Z,14.211121
2018-11-26T01:55:36.895Z,14.170837
2018-11-26T01:55:56.507Z,14.170837
2018-11-26T01:56:16.138Z,14.170837
2018-11-26T01:56:35.743Z,14.180908
2018-11-26T01:56:56.181Z,14.180908
2018-11-26T01:57:15.820Z,14.180908
2018-11-26T01:57:35.537Z,14.20105
2018-11-26T01:57:55.169Z,14.211121
2018-11-26T01:58:15.551Z,14.211121
2018-11-26T01:58:35.160Z,14.221191
2018-11-26T01:58:54.784Z,14.241333
2018-11-26T01:59:14.396Z,14.211121
2018-11-26T01:59:34.006Z,14.221191
2018-11-26T01:59:53.613Z,14.251404
2018-11-26T02:00:14.265Z,14.241333
2018-11-26T02:00:33.882Z,14.221191
2018-11-26T02:00:53.850Z,14.221191
2018-11-26T02:01:13.463Z,14.241333
2018-11-26T02:01:33.074Z,14.251404
2018-11-26T02:01:52.681Z,14.241333
2018-11-26T02:02:12.343Z,14.241333
2018-11-26T02:02:33.599Z,14.221191
2018-11-26T02:02:54.201Z,14.221191
2018-11-26T02:03:13.831Z,14.211121
2018-11-26T02:03:33.432Z,14.20105
2018-11-26T02:03:53.039Z,14.170837
2018-11-26T02:04:12.652Z,14.180908
2018-11-26T02:04:32.293Z,14.170837
2018-11-26T02:04:51.997Z,14.170837
2018-11-26T02:05:11.604Z,14.150696
2018-11-26T02:05:31.238Z,14.120483
2018-11-26T02:05:51.879Z,14.120483
2018-11-26T02:06:11.567Z,14.100342
2018-11-26T02:06:31.212Z,14.100342
2018-11-26T02:06:50.827Z,14.140625
2018-11-26T02:07:10.438Z,14.120483
2018-11-26T02:07:30.053Z,14.150696
2018-11-26T02:07:49.716Z,14.170837
2018-11-26T02:08:09.324Z,14.170837
2018-11-26T02:08:28.936Z,14.170837
2018-11-26T02:08:48.540Z,14.180908
2018-11-26T02:09:08.152Z,14.150696
2018-11-26T02:09:27.879Z,14.180908
2018-11-26T02:09:47.558Z,14.170837
2018-11-26T02:10:08.157Z,14.180908
2018-11-26T02:10:27.802Z,14.140625
2018-11-26T02:10:47.424Z,14.150696
2018-11-26T02:11:07.027Z,14.140625
2018-11-26T02:11:26.652Z,14.140625
2018-11-26T02:11:46.321Z,14.100342
2018-11-26T02:12:05.929Z,14.120483
2018-11-26T02:12:25.574Z,14.120483
2018-11-26T02:12:45.254Z,14.120483
2018-11-26T02:13:04.850Z,14.090271
2018-11-26T02:13:24.480Z,14.120483
2018-11-26T02:13:44.144Z,14.090271
2018-11-26T02:14:03.769Z,14.100342
2018-11-26T02:14:23.383Z,14.120483
2018-11-26T02:14:43.001Z,14.100342
2018-11-26T02:15:02.716Z,14.120483
2018-11-26T02:15:22.365Z,14.140625
2018-11-26T02:15:42.036Z,14.140625
2018-11-26T02:16:01.714Z,14.140625
2018-11-26T02:16:21.316Z,14.150696
2018-11-26T02:16:40.928Z,14.170837
2018-11-26T02:17:00.608Z,14.150696
2018-11-26T02:17:21.221Z,14.140625
2018-11-26T02:17:40.901Z,14.090271
2018-11-26T02:18:00.576Z,14.100342
2018-11-26T02:18:20.181Z,14.100342
2018-11-26T02:18:39.812Z,14.100342
2018-11-26T02:18:59.597Z,14.120483
2018-11-26T02:19:19.240Z,14.140625
2018-11-26T02:19:38.842Z,14.120483
2018-11-26T02:19:58.457Z,14.140625
2018-11-26T02:20:18.103Z,14.170837
2018-11-26T02:20:37.715Z,14.140625
2018-11-26T02:20:57.384Z,14.180908
2018-11-26T02:21:16.996Z,14.150696
2018-11-26T02:21:36.622Z,14.170837
2018-11-26T02:21:56.321Z,14.180908
2018-11-26T02:22:16.004Z,14.170837
2018-11-26T02:22:35.618Z,14.170837
2018-11-26T02:22:55.410Z,14.170837
2018-11-26T02:23:15.502Z,14.140625
2018-11-26T02:23:35.547Z,14.120483
2018-11-26T02:23:55.329Z,14.150696
2018-11-26T02:24:14.936Z,14.120483
2018-11-26T02:24:34.558Z,14.120483
2018-11-26T02:24:54.191Z,14.120483
2018-11-26T02:25:13.820Z,14.120483
2018-11-26T02:25:33.491Z,14.140625
2018-11-26T02:25:53.124Z,14.090271
2018-11-26T02:26:13.725Z,14.100342
2018-11-26T02:26:33.410Z,14.100342
2018-11-26T02:26:53.015Z,14.070129
2018-11-26T02:27:12.681Z,14.090271
2018-11-26T02:27:32.377Z,14.100342
2018-11-26T02:27:51.979Z,14.100342
2018-11-26T02:28:12.432Z,14.070129
2018-11-26T02:28:32.078Z,14.060059
2018-11-26T02:28:51.699Z,14.039917
2018-11-26T02:29:11.307Z,14.039917
2018-11-26T02:29:30.968Z,14.060059
2018-11-26T02:29:50.789Z,14.060059
2018-11-26T02:30:10.441Z,14.060059
2018-11-26T02:30:30.060Z,14.060059
2018-11-26T02:30:49.687Z,14.019775
2018-11-26T02:31:09.284Z,14.029846
2018-11-26T02:31:28.906Z,14.029846
2018-11-26T02:31:48.590Z,14.019775
2018-11-26T02:32:08.181Z,14.039917
2018-11-26T02:32:27.780Z,14.019775
2018-11-26T02:32:47.404Z,13.989563
2018-11-26T02:33:08.059Z,14.019775
2018-11-26T02:33:27.658Z,13.969421
2018-11-26T02:33:47.268Z,13.999634
2018-11-26T02:34:06.897Z,13.999634
2018-11-26T02:34:26.604Z,14.019775
2018-11-26T02:34:46.298Z,13.989563
2018-11-26T02:35:05.912Z,14.019775
2018-11-26T02:35:26.512Z,13.999634
2018-11-26T02:35:46.432Z,13.999634
2018-11-26T02:36:06.141Z,13.999634
2018-11-26T02:36:25.802Z,13.989563
2018-11-26T02:36:45.828Z,13.969421
2018-11-26T02:37:06.416Z,13.989563
2018-11-26T02:37:26.098Z,13.969421
2018-11-26T02:37:45.808Z,13.969421
2018-11-26T02:38:05.472Z,13.959351
2018-11-26T02:38:25.085Z,13.969421
2018-11-26T02:38:44.890Z,13.969421
2018-11-26T02:39:04.505Z,13.959351
2018-11-26T02:39:25.421Z,13.959351
2018-11-26T02:39:45.152Z,13.959351
2018-11-26T02:40:04.761Z,13.908997
2018-11-26T02:40:24.373Z,13.94928
2018-11-26T02:40:43.995Z,13.959351
2018-11-26T02:41:03.611Z,13.94928
2018-11-26T02:41:23.215Z,13.908997
2018-11-26T02:41:42.831Z,13.868713
2018-11-26T02:42:02.473Z,13.838501
2018-11-26T02:42:22.086Z,13.818359
2018-11-26T02:42:41.700Z,13.838501
2018-11-26T02:43:01.321Z,13.848572
2018-11-26T02:43:21.972Z,13.878784
2018-11-26T02:43:41.600Z,13.868713
2018-11-26T02:44:01.208Z,13.868713
2018-11-26T02:44:21.169Z,13.878784
2018-11-26T02:44:41.345Z,13.888855
2018-11-26T02:45:01.014Z,13.888855
2018-11-26T02:45:20.626Z,13.908997
2018-11-26T02:45:40.452Z,13.908997
2018-11-26T02:46:00.062Z,13.908997
2018-11-26T02:46:19.711Z,13.908997
2018-11-26T02:46:39.369Z,13.919067
2018-11-26T02:46:58.987Z,13.919067
2018-11-26T02:47:18.627Z,13.919067
2018-11-26T02:47:38.249Z,13.888855
2018-11-26T02:47:57.882Z,13.908997
2018-11-26T02:48:17.686Z,13.919067
2018-11-26T02:48:37.334Z,13.888855
2018-11-26T02:48:57.083Z,13.908997
2018-11-26T02:49:16.707Z,13.888855
2018-11-26T02:49:36.322Z,13.908997
2018-11-26T02:49:56.019Z,13.878784
2018-11-26T02:50:15.641Z,13.888855
2018-11-26T02:50:35.252Z,13.868713
2018-11-26T02:50:54.873Z,13.878784
2018-11-26T02:51:14.483Z,13.878784
2018-11-26T02:51:34.155Z,13.868713
2018-11-26T02:51:53.776Z,13.868713
2018-11-26T02:52:13.433Z,13.868713
2018-11-26T02:52:33.043Z,13.838501
2018-11-26T02:52:52.676Z,13.838501
2018-11-26T02:53:12.295Z,13.838501
2018-11-26T02:53:32.946Z,13.848572
2018-11-26T02:53:52.553Z,13.848572
2018-11-26T02:54:12.168Z,13.838501
2018-11-26T02:54:31.770Z,13.818359
2018-11-26T02:54:52.357Z,13.838501
2018-11-26T02:55:12.068Z,13.818359
2018-11-26T02:55:31.686Z,13.848572
2018-11-26T02:55:51.303Z,13.848572
2018-11-26T02:56:10.912Z,13.848572
2018-11-26T02:56:30.532Z,13.838501
2018-11-26T02:56:50.158Z,13.868713
2018-11-26T02:57:09.766Z,13.868713
2018-11-26T02:57:29.409Z,13.878784
2018-11-26T02:57:49.564Z,13.868713
2018-11-26T02:58:09.211Z,13.888855
2018-11-26T02:58:28.868Z,13.878784
2018-11-26T02:58:48.564Z,13.888855
2018-11-26T02:59:08.169Z,13.888855
2018-11-26T02:59:27.778Z,13.888855
2018-11-26T02:59:47.388Z,13.888855
2018-11-26T03:00:07.014Z,13.888855
2018-11-26T03:00:26.664Z,13.888855
2018-11-26T03:00:46.328Z,13.888855
2018-11-26T03:01:05.959Z,13.878784
2018-11-26T03:01:25.570Z,13.888855
2018-11-26T03:01:45.225Z,13.878784
2018-11-26T03:02:04.846Z,13.888855
2018-11-26T03:02:24.467Z,13.888855
2018-11-26T03:02:44.085Z,13.888855
2018-11-26T03:03:03.691Z,13.888855
2018-11-26T03:03:23.302Z,13.878784
2018-11-26T03:03:42.977Z,13.868713
2018-11-26T03:04:02.612Z,13.878784
2018-11-26T03:04:22.236Z,13.888855
2018-11-26T03:04:41.859Z,13.878784
2018-11-26T03:05:01.485Z,13.878784
2018-11-26T03:05:21.780Z,13.878784
2018-11-26T03:05:41.388Z,13.878784
2018-11-26T03:06:01.024Z,13.888855
2018-11-26T03:06:20.651Z,13.848572
2018-11-26T03:06:40.282Z,13.848572
2018-11-26T03:07:00.995Z,13.818359
2018-11-26T03:07:20.606Z,13.848572
2018-11-26T03:07:40.223Z,13.818359
2018-11-26T03:07:59.865Z,13.818359
2018-11-26T03:08:19.484Z,13.818359
2018-11-26T03:08:39.157Z,13.838501
2018-11-26T03:08:58.776Z,13.818359
2018-11-26T03:09:18.437Z,13.838501
2018-11-26T03:09:38.071Z,13.838501
2018-11-26T03:09:57.764Z,13.818359
2018-11-26T03:10:17.494Z,13.818359
2018-11-26T03:10:37.123Z,13.838501
2018-11-26T03:10:56.731Z,13.818359
2018-11-26T03:11:16.337Z,13.848572
2018-11-26T03:11:35.943Z,13.818359
2018-11-26T03:11:55.554Z,13.838501
2018-11-26T03:12:15.208Z,13.838501
2018-11-26T03:12:34.799Z,13.878784
2018-11-26T03:12:54.435Z,13.848572
2018-11-26T03:13:14.084Z,13.838501
2018-11-26T03:13:34.795Z,13.848572
2018-11-26T03:13:54.484Z,13.848572
2018-11-26T03:14:14.086Z,13.868713
2018-11-26T03:14:33.693Z,13.838501
2018-11-26T03:14:53.327Z,13.818359
2018-11-26T03:15:12.959Z,13.838501
2018-11-26T03:15:32.657Z,13.838501
2018-11-26T03:15:52.275Z,13.848572
2018-11-26T03:16:11.899Z,13.838501
2018-11-26T03:16:31.515Z,13.848572
2018-11-26T03:16:51.299Z,13.848572
2018-11-26T03:17:10.942Z,13.878784
2018-11-26T03:17:30.554Z,13.878784
2018-11-26T03:17:50.168Z,13.868713
2018-11-26T03:18:09.838Z,13.878784
2018-11-26T03:18:29.511Z,13.868713
2018-11-26T03:18:49.279Z,13.878784
2018-11-26T03:19:08.887Z,13.848572
2018-11-26T03:19:28.510Z,13.818359
2018-11-26T03:19:48.115Z,13.838501
2018-11-26T03:20:09.752Z,13.818359
2018-11-26T03:20:29.363Z,13.838501
2018-11-26T03:20:49.008Z,13.808289
2018-11-26T03:21:08.618Z,13.838501
2018-11-26T03:21:28.249Z,13.838501
2018-11-26T03:21:47.864Z,13.838501
2018-11-26T03:22:08.458Z,13.838501
2018-11-26T03:22:28.158Z,13.838501
2018-11-26T03:22:47.787Z,13.838501
2018-11-26T03:23:07.394Z,13.818359
2018-11-26T03:23:27.020Z,13.818359
2018-11-26T03:23:47.681Z,13.818359
2018-11-26T03:24:07.352Z,13.818359
2018-11-26T03:24:26.949Z,13.818359
2018-11-26T03:24:46.573Z,13.838501
2018-11-26T03:25:06.181Z,13.868713
2018-11-26T03:25:25.798Z,13.848572
2018-11-26T03:25:45.425Z,13.848572
2018-11-26T03:26:05.036Z,13.848572
2018-11-26T03:26:24.649Z,13.838501
2018-11-26T03:26:44.271Z,13.848572
2018-11-26T03:27:03.879Z,13.848572
2018-11-26T03:27:23.517Z,13.848572
2018-11-26T03:27:43.190Z,13.878784
2018-11-26T03:28:02.848Z,13.868713
2018-11-26T03:28:22.460Z,13.878784
2018-11-26T03:28:42.072Z,13.838501
2018-11-26T03:29:03.026Z,13.848572
2018-11-26T03:29:22.639Z,13.868713
2018-11-26T03:29:42.354Z,13.868713
2018-11-26T03:30:01.989Z,13.888855
2018-11-26T03:30:21.589Z,13.868713
2018-11-26T03:30:41.188Z,13.878784
2018-11-26T03:31:00.804Z,13.848572
2018-11-26T03:31:20.479Z,13.848572
2018-11-26T03:31:40.102Z,13.868713
2018-11-26T03:31:59.737Z,13.878784
2018-11-26T03:32:19.349Z,13.868713
2018-11-26T03:32:40.037Z,13.868713
2018-11-26T03:32:59.655Z,13.878784
2018-11-26T03:33:19.273Z,13.838501
2018-11-26T03:33:38.902Z,13.868713
2018-11-26T03:33:58.571Z,13.838501
2018-11-26T03:34:18.254Z,13.838501
2018-11-26T03:34:37.874Z,13.848572
2018-11-26T03:34:57.499Z,13.818359
2018-11-26T03:35:17.187Z,13.848572
2018-11-26T03:35:36.805Z,13.838501
2018-11-26T03:35:56.420Z,13.848572
2018-11-26T03:36:16.114Z,13.868713
2018-11-26T03:36:35.747Z,13.848572
2018-11-26T03:36:55.405Z,13.878784
2018-11-26T03:37:15.039Z,13.868713
2018-11-26T03:37:34.661Z,13.888855
2018-11-26T03:37:55.098Z,13.868713
2018-11-26T03:38:15.422Z,13.848572
2018-11-26T03:38:35.031Z,13.838501
2018-11-26T03:38:54.642Z,13.848572
2018-11-26T03:39:14.377Z,13.818359
2018-11-26T03:39:33.991Z,13.838501
2018-11-26T03:39:53.674Z,13.808289
2018-11-26T03:40:14.271Z,13.808289
2018-11-26T03:40:33.872Z,13.818359
2018-11-26T03:40:53.485Z,13.818359
2018-11-26T03:41:13.096Z,13.818359
2018-11-26T03:41:32.708Z,13.808289
2018-11-26T03:41:52.320Z,13.788147
2018-11-26T03:42:11.935Z,13.778076
2018-11-26T03:42:31.546Z,13.778076
2018-11-26T03:42:51.155Z,13.788147
2018-11-26T03:43:10.769Z,13.778076
2018-11-26T03:43:30.374Z,13.747864
2018-11-26T03:43:49.998Z,13.747864
2018-11-26T03:44:09.661Z,13.69751
2018-11-26T03:44:29.270Z,13.69751
2018-11-26T03:44:48.883Z,13.69751
2018-11-26T03:45:08.487Z,13.747864
2018-11-26T03:45:28.114Z,13.707581